Impacts TAF Board
For situational awareness. Not to be used for flight planning purposes.
IDs:

KLGA - New York/La Guardia, NY, US

Issued at 0223 UTC 16 Oct 2018
Updated at 0242 UTC 16 Oct 2018
Potential Impact None Slight Moderate High
Time0151Z 16/03Z 16/04Z 16/05Z 16/06Z 16/07Z 16/08Z 16/09Z 16/10Z 16/11Z 16/12Z 16/13Z 16/14Z 16/15Z>>
Type OBS PRVL
  [TEMP]  
PRVL
  [TEMP]  
PRVL
  [TEMP]  
PRVL PRVL PRVL PRVL PRVL PRVL PRVL PRVL PRVL PRVL
VIS 10 >6
  [3]  
>6
  [3]  
>6
  [3]  
>6 >6 >6 >6 >6 >6 >6 >6 >6 >6
CIG 70 50
  [25]  
50
  [25]  
50
  [25]  
90 90 90 -- -- -- -- -- -- --
Cover OVC OVC
  [BKN]  
OVC
  [BKN]  
OVC
  [BKN]  
BKN BKN BKN SCT SCT SCT FEW FEW FEW FEW
FltCat VFR VFR
  [MVFR]  
VFR
  [MVFR]  
VFR
  [MVFR]  
VFR VFR VFR VFR VFR VFR VFR VFR VFR VFR
WX -- --
  [-SHRA]  
--
  [-SHRA]  
--
  [-SHRA]  
-- -- -- -- -- -- -- -- -- --
WDir 220 290
[290]
290
[290]
290
[290]
300 300 300 320 320 320 320 320 320 320
WSpd 12 16
  [22]  
16
  [22]  
16
  [22]  
18 18 18 16 16 16 11 11 11 11
WGst 20 28
  [34]  
28
  [34]  
28
  [34]  
28 28 28 23 23 23 19 19 19 19
Raw TAF
KLGA 160223Z 1602/1706 29016G28KT P6SM SCT015 BKN050 OVC070 WS020/24050KT
  TEMPO 1603/1606 29022G34KT 3SM -SHRA BKN025
  FM160600 30018G28KT P6SM FEW035 BKN090
  FM160900 32016G23KT P6SM FEW035 SCT120 SCT250
  FM161200 32011G19KT P6SM FEW035
  FM161600 29009KT P6SM FEW035
  FM161800 26010KT P6SM FEW035


Raw METAR
KLGA 160151Z 22012G20KT 10SM FEW055 OVC070 21/17 A2985 RMK AO2 SLP109 T02060167 $
KLGA 160051Z 23014G23KT 10SM FEW050 SCT070 BKN260 21/17 A2986 RMK AO2 RAB2355E06 SLP112 P0000 T02060167 $
KLGA 152351Z 22013KT 10SM SCT015 OVC050 20/17 A2988 RMK AO2 SLP116 SCT V BKN T02000167 10200 20183 56005 $
KLGA 152346Z 21013KT 10SM SCT015 OVC050 20/17 A2988 RMK AO2 SCT V BKN $

METAR Board
Radar Display
Forecast Discussion
For situational awareness. Not to be used for flight planning purposes.